createdAt,value
2023-02-11T00:00:51.282Z,102404.50
2023-02-11T00:04:52.923Z,102389.88
2023-02-11T00:08:55.428Z,102391.00
2023-02-11T00:12:56.894Z,102392.59
2023-02-11T00:16:58.479Z,102403.56
2023-02-11T00:20:59.980Z,102404.16
2023-02-11T00:25:01.423Z,102397.59
2023-02-11T00:29:04.700Z,102394.91
2023-02-11T00:33:06.410Z,102398.25
2023-02-11T00:37:07.919Z,102382.75
2023-02-11T00:41:09.350Z,102372.28
2023-02-11T00:45:10.843Z,102367.69
2023-02-11T00:49:12.333Z,102372.66
2023-02-11T00:53:13.839Z,102370.72
2023-02-11T00:57:15.277Z,102393.84
2023-02-11T01:01:17.562Z,102381.63
2023-02-11T01:05:20.053Z,102388.78
2023-02-11T01:09:23.122Z,102393.03
2023-02-11T01:13:25.754Z,102385.78
2023-02-11T01:17:28.833Z,102388.69
2023-02-11T01:21:30.590Z,102386.66
2023-02-11T01:25:32.102Z,102380.06
2023-02-11T01:29:33.599Z,102360.06
2023-02-11T01:33:35.322Z,102344.50
2023-02-11T01:37:36.877Z,102338.09
2023-02-11T01:41:38.649Z,102328.19
2023-02-11T01:45:57.109Z,102324.50
2023-02-11T01:50:02.194Z,102320.22
2023-02-11T01:54:25.772Z,102308.06
2023-02-11T01:58:30.072Z,102313.56
2023-02-11T02:02:58.518Z,102302.22
2023-02-11T02:07:06.580Z,102281.66
2023-02-11T02:11:10.863Z,102288.94
2023-02-11T02:15:19.669Z,102298.81
2023-02-11T02:19:51.905Z,102303.09
2023-02-11T02:24:14.703Z,102303.53
2023-02-11T02:29:00.411Z,102310.50
2023-02-11T02:33:23.698Z,102323.47
2023-02-11T02:37:34.445Z,102313.50
2023-02-11T02:41:39.281Z,102304.50
2023-02-11T02:45:41.034Z,102314.13
2023-02-11T02:49:42.559Z,102303.72
2023-02-11T02:54:05.768Z,102315.78
2023-02-11T02:58:23.773Z,102306.16
2023-02-11T03:02:36.294Z,102291.50
2023-02-11T03:06:54.817Z,102308.72
2023-02-11T03:10:57.285Z,102286.41
2023-02-11T03:14:59.769Z,102279.41
2023-02-11T03:19:10.933Z,102255.28
2023-02-11T03:23:21.536Z,102239.41
2023-02-11T03:27:47.498Z,102247.53
2023-02-11T03:32:16.141Z,102236.09
2023-02-11T03:36:24.057Z,102235.34
2023-02-11T03:40:29.536Z,102237.28
2023-02-11T03:44:37.353Z,102252.91
2023-02-11T03:48:45.809Z,102255.78
2023-02-11T03:52:49.809Z,102245.97
2023-02-11T03:56:54.430Z,102243.72
2023-02-11T04:00:56.028Z,102266.13
2023-02-11T04:04:57.769Z,102275.00
2023-02-11T04:08:59.183Z,102258.41
2023-02-11T04:13:00.759Z,102246.56
2023-02-11T04:17:02.670Z,102245.81
2023-02-11T04:21:04.246Z,102237.31
2023-02-11T04:25:06.461Z,102237.22
2023-02-11T04:29:08.065Z,102228.06
2023-02-11T04:33:09.543Z,102228.97
2023-02-11T04:37:10.981Z,102212.03
2023-02-11T04:41:12.443Z,102229.25
2023-02-11T04:45:13.966Z,102236.94
2023-02-11T04:49:17.155Z,102227.16
2023-02-11T04:53:18.643Z,102212.13
2023-02-11T04:57:20.081Z,102191.91
2023-02-11T05:01:21.576Z,102186.53
2023-02-11T05:05:24.386Z,102191.25
2023-02-11T05:09:31.501Z,102191.16
2023-02-11T05:13:59.538Z,102182.38
2023-02-11T05:18:01.764Z,102181.53
2023-02-11T05:22:19.901Z,102184.16
2023-02-11T05:26:21.710Z,102177.06
2023-02-11T05:30:23.271Z,102183.47
2023-02-11T05:34:24.852Z,102196.94
2023-02-11T05:38:26.839Z,102157.97
2023-02-11T05:42:28.385Z,102165.84
2023-02-11T05:46:41.838Z,102163.38
2023-02-11T05:55:32.091Z,102148.63
2023-02-11T05:59:33.666Z,102188.22
2023-02-11T06:03:35.922Z,102183.09
2023-02-11T06:07:38.449Z,102171.91
2023-02-11T06:11:40.279Z,102188.50
2023-02-11T06:15:42.586Z,102188.56
2023-02-11T06:20:20.481Z,102182.34
2023-02-11T06:24:47.734Z,102166.94
2023-02-11T06:28:43.821Z,102183.78
2023-02-11T06:32:46.210Z,102165.59
2023-02-11T06:36:55.758Z,102175.38
2023-02-11T06:40:57.619Z,102183.69
2023-02-11T06:44:59.229Z,102178.09
2023-02-11T06:49:00.799Z,102206.34
2023-02-11T06:53:02.350Z,102214.41
2023-02-11T06:57:04.033Z,102218.56
2023-02-11T07:01:07.785Z,102203.94
2023-02-11T07:05:09.950Z,102208.16
2023-02-11T07:09:11.895Z,102193.22
2023-02-11T07:13:13.534Z,102191.53
2023-02-11T07:17:15.050Z,102217.16
2023-02-11T07:21:19.894Z,102220.53
2023-02-11T07:25:24.123Z,102213.59
2023-02-11T07:29:25.869Z,102201.16
2023-02-11T07:33:27.497Z,102207.59
2023-02-11T07:37:53.386Z,102228.78
2023-02-11T07:41:55.135Z,102242.09
2023-02-11T07:45:57.849Z,102241.06
2023-02-11T07:49:59.424Z,102250.09
2023-02-11T07:54:01.306Z,102233.53
2023-02-11T07:58:02.845Z,102227.63
2023-02-11T08:02:04.386Z,102231.69
2023-02-11T08:06:08.808Z,102251.06
2023-02-11T08:10:10.532Z,102256.47
2023-02-11T08:14:16.420Z,102247.78
2023-02-11T08:18:18.099Z,102251.41
2023-02-11T08:22:19.621Z,102260.19
2023-02-11T08:26:25.419Z,102267.81
2023-02-11T08:30:27.654Z,102263.47
2023-02-11T08:34:29.156Z,102265.34
2023-02-11T08:38:45.805Z,102274.03
2023-02-11T08:42:47.532Z,102272.25
2023-02-11T08:46:50.293Z,102278.09
2023-02-11T08:50:51.785Z,102261.06
2023-02-11T08:54:53.337Z,102300.31
2023-02-11T08:58:54.865Z,102302.16
2023-02-11T09:02:56.359Z,102308.88
2023-02-11T09:06:57.980Z,102299.19
2023-02-11T09:11:03.126Z,102287.66
2023-02-11T09:15:04.963Z,102294.81
2023-02-11T09:19:06.448Z,102290.78
2023-02-11T09:23:07.886Z,102305.13
2023-02-11T09:33:00.465Z,102259.19
2023-02-11T09:37:03.522Z,102264.63
2023-02-11T09:41:07.619Z,102257.28
2023-02-11T09:45:16.568Z,102258.63
2023-02-11T09:49:24.721Z,102244.31
2023-02-11T09:53:27.500Z,102254.03
2023-02-11T09:57:33.970Z,102253.06
2023-02-11T10:01:46.103Z,102254.75
2023-02-11T10:06:14.784Z,102279.41
2023-02-11T10:10:37.796Z,102292.66
2023-02-11T10:14:54.570Z,102315.63
2023-02-11T10:19:25.043Z,102344.91
2023-02-11T10:23:33.017Z,102352.84
2023-02-11T10:27:36.085Z,102359.13
2023-02-11T10:31:42.237Z,102357.41
2023-02-11T10:35:43.897Z,102352.34
2023-02-11T10:39:48.476Z,102346.16
2023-02-11T10:43:50.906Z,102361.28
2023-02-11T10:47:52.373Z,102360.44
2023-02-11T10:52:14.132Z,102363.09
2023-02-11T10:56:27.715Z,102335.50
2023-02-11T11:00:43.510Z,102359.69
2023-02-11T11:04:45.865Z,102342.06
2023-02-11T11:08:50.166Z,102338.38
2023-02-11T11:12:51.723Z,102350.75
2023-02-11T11:16:56.445Z,102347.28
2023-02-11T11:21:05.645Z,102362.53
2023-02-11T11:25:22.196Z,102372.13
2023-02-11T11:29:48.112Z,102340.16
2023-02-11T11:33:53.510Z,102353.34
2023-02-11T11:38:01.917Z,102368.50
2023-02-11T11:42:21.821Z,102385.09
2023-02-11T11:46:26.984Z,102384.88
2023-02-11T11:50:45.725Z,102393.03
2023-02-11T11:55:04.797Z,102392.91
2023-02-11T11:59:13.456Z,102396.41
2023-02-11T12:03:52.275Z,102383.09
2023-02-11T12:08:31.200Z,102396.34
2023-02-11T12:12:55.386Z,102396.28
2023-02-11T12:17:09.016Z,102379.50
2023-02-11T12:21:42.887Z,102396.19
2023-02-11T12:26:18.880Z,102413.00
2023-02-11T12:30:38.388Z,102403.25
2023-02-11T12:35:01.378Z,102403.22
2023-02-11T12:39:29.486Z,102394.34
2023-02-11T12:43:39.551Z,102391.06
2023-02-11T12:48:10.525Z,102385.59
2023-02-11T12:52:14.674Z,102399.00
2023-02-11T12:56:45.225Z,102408.75
2023-02-11T13:06:49.015Z,102416.25
2023-02-11T13:10:52.979Z,102416.19
2023-02-11T13:15:01.875Z,102411.84
2023-02-11T13:19:34.364Z,102419.69
2023-02-11T13:23:57.877Z,102436.53
2023-02-11T13:28:23.148Z,102456.03
2023-02-11T13:33:03.164Z,102459.56
2023-02-11T13:37:04.806Z,102449.69
2023-02-11T13:41:26.061Z,102458.63
2023-02-11T13:45:44.560Z,102466.63
2023-02-11T13:49:54.296Z,102483.50
2023-02-11T13:53:57.276Z,102487.75
2023-02-11T13:58:08.444Z,102487.97
2023-02-11T14:02:44.515Z,102498.28
2023-02-11T14:07:47.338Z,102509.00
2023-02-11T14:12:43.716Z,102523.03
2023-02-11T14:17:00.889Z,102497.41
2023-02-11T14:21:11.768Z,102500.16
2023-02-11T14:25:21.878Z,102509.97
2023-02-11T14:29:45.703Z,102511.72
2023-02-11T14:34:08.047Z,102541.81
2023-02-11T14:38:23.890Z,102552.50
2023-02-11T14:42:28.967Z,102554.31
2023-02-11T14:46:35.416Z,102554.75
2023-02-11T14:51:02.896Z,102551.31
2023-02-11T14:55:29.011Z,102563.03
2023-02-11T14:59:30.438Z,102576.63
2023-02-11T15:03:40.110Z,102586.47
2023-02-11T15:07:55.829Z,102572.41
2023-02-11T15:11:58.601Z,102588.34
2023-02-11T15:16:11.516Z,102588.31
2023-02-11T15:20:21.980Z,102579.53
2023-02-11T15:24:28.190Z,102588.31
2023-02-11T15:28:34.895Z,102597.03
2023-02-11T15:32:37.070Z,102609.31
2023-02-11T15:36:38.639Z,102599.63
2023-02-11T15:40:40.199Z,102611.72
2023-02-11T15:44:41.665Z,102617.75
2023-02-11T15:48:53.793Z,102627.75
2023-02-11T15:52:57.411Z,102618.66
2023-02-11T15:57:07.379Z,102627.72
2023-02-11T16:01:10.088Z,102626.78
2023-02-11T16:05:35.700Z,102636.09
2023-02-11T16:09:37.226Z,102643.13
2023-02-11T16:13:47.203Z,102642.34
2023-02-11T16:17:48.777Z,102659.84
2023-02-11T16:21:50.844Z,102670.88
2023-02-11T16:26:22.988Z,102668.22
2023-02-11T16:35:18.720Z,102679.16
2023-02-11T16:39:22.772Z,102684.59
2023-02-11T16:43:24.383Z,102696.25
2023-02-11T16:47:27.981Z,102677.00
2023-02-11T16:51:29.410Z,102683.06
2023-02-11T16:55:32.470Z,102694.53
2023-02-11T16:59:34.132Z,102707.69
2023-02-11T17:03:40.396Z,102723.84
2023-02-11T17:07:41.829Z,102724.72
2023-02-11T17:11:43.296Z,102727.78
2023-02-11T17:15:44.759Z,102736.19
2023-02-11T17:25:45.562Z,102743.97
2023-02-11T17:30:47.883Z,102746.47
2023-02-11T17:34:50.167Z,102765.25
2023-02-11T17:38:52.016Z,102780.16
2023-02-11T17:42:53.455Z,102766.59
2023-02-11T17:46:54.942Z,102773.66
2023-02-11T17:50:56.419Z,102793.13
2023-02-11T17:54:58.076Z,102795.06
2023-02-11T17:58:59.614Z,102792.19
2023-02-11T18:03:04.117Z,102802.75
2023-02-11T18:07:06.103Z,102828.44
2023-02-11T18:11:12.716Z,102831.13
2023-02-11T18:15:14.148Z,102830.53
2023-02-11T18:19:15.599Z,102859.00
2023-02-11T18:23:17.134Z,102853.47
2023-02-11T18:27:18.752Z,102866.69
2023-02-11T18:31:21.884Z,102861.94
2023-02-11T18:35:23.716Z,102878.97
2023-02-11T18:39:26.368Z,102867.50
2023-02-11T18:43:31.667Z,102872.03
2023-02-11T18:47:33.256Z,102875.50
2023-02-11T18:51:34.733Z,102886.31
2023-02-11T18:55:39.913Z,102889.81
2023-02-11T18:59:41.330Z,102903.03
2023-02-11T19:03:44.260Z,102894.81
2023-02-11T19:07:45.739Z,102897.34
2023-02-11T19:11:47.273Z,102910.09
2023-02-11T19:15:48.752Z,102905.91
2023-02-11T19:19:50.354Z,102913.59
2023-02-11T19:23:51.823Z,102914.06
2023-02-11T19:27:53.355Z,102913.19
2023-02-11T19:31:55.304Z,102915.47
2023-02-11T19:36:02.780Z,102925.22
2023-02-11T19:40:05.253Z,102934.25
2023-02-11T19:44:07.780Z,102934.94
2023-02-11T19:48:12.789Z,102937.06
2023-02-11T19:52:14.284Z,102943.88
2023-02-11T19:56:16.036Z,102952.50
2023-02-11T20:00:18.061Z,102960.19
2023-02-11T20:04:19.798Z,102973.28
2023-02-11T20:08:21.223Z,102967.44
2023-02-11T20:12:22.635Z,102980.03
2023-02-11T20:16:40.745Z,102973.91
2023-02-11T20:20:47.963Z,102969.88
2023-02-11T20:24:49.485Z,102986.63
2023-02-11T20:28:52.344Z,102981.56
2023-02-11T20:32:53.802Z,103004.09
2023-02-11T20:36:55.915Z,103017.31
2023-02-11T20:41:05.960Z,103015.69
2023-02-11T20:45:07.833Z,103029.28
2023-02-11T20:49:14.485Z,103029.66
2023-02-11T20:53:15.926Z,103034.72
2023-02-11T20:57:17.498Z,103038.63
2023-02-11T21:01:22.330Z,103040.81
2023-02-11T21:05:23.778Z,103055.00
2023-02-11T21:09:27.980Z,103055.31
2023-02-11T21:13:29.525Z,103059.56
2023-02-11T21:17:31.986Z,103065.69
2023-02-11T21:21:36.175Z,103076.56
2023-02-11T21:25:37.611Z,103090.50
2023-02-11T21:29:52.752Z,103087.94
2023-02-11T21:33:55.983Z,103100.78
2023-02-11T21:37:57.442Z,103102.03
2023-02-11T21:41:59.145Z,103102.31
2023-02-11T21:46:01.042Z,103115.19
2023-02-11T21:50:02.498Z,103124.06
2023-02-11T21:54:04.288Z,103131.88
2023-02-11T21:58:06.710Z,103130.69
2023-02-11T22:02:09.569Z,103134.00
2023-02-11T22:06:18.009Z,103131.66
2023-02-11T22:10:19.542Z,103148.06
2023-02-11T22:14:21.001Z,103150.19
2023-02-11T22:18:22.438Z,103146.97
2023-02-11T22:22:24.183Z,103153.50
2023-02-11T22:26:27.707Z,103154.97
2023-02-11T22:30:29.120Z,103155.91
2023-02-11T22:34:30.633Z,103156.03
2023-02-11T22:38:33.961Z,103166.56
2023-02-11T22:42:35.410Z,103168.34
2023-02-11T22:46:37.521Z,103175.38
2023-02-11T22:50:38.950Z,103182.69
2023-02-11T22:54:40.380Z,103178.63
2023-02-11T22:58:41.870Z,103186.69
2023-02-11T23:02:43.455Z,103185.38
2023-02-11T23:06:47.525Z,103193.44
2023-02-11T23:10:49.389Z,103199.38
2023-02-11T23:14:51.234Z,103200.13
2023-02-11T23:18:53.151Z,103199.28
2023-02-11T23:22:55.056Z,103208.84
2023-02-11T23:26:56.462Z,103204.97
2023-02-11T23:30:57.904Z,103201.84
2023-02-11T23:34:59.451Z,103198.47
2023-02-11T23:39:00.943Z,103209.13
2023-02-11T23:43:02.452Z,103204.56
2023-02-11T23:47:04.656Z,103213.34
2023-02-11T23:51:06.716Z,103208.19
2023-02-11T23:55:09.429Z,103202.78
2023-02-11T23:59:11.553Z,103192.38
